Terminal Aerodrome Forecast
Issued by NWS

Home | Current Version | Previous Version | Text Only | Print | Product List | Glossary On
Versions: 1 2 3 4 5 6 7 8 9 10 11 12 13 14 15 16 17 18 19 20 21 22
000
FTUS43 KDLH 240539
TAFBRD
TAF
KBRD 240539Z 2406/2506 31005KT P6SM FEW045
     FM241200 29006KT P6SM BKN090
     FM241600 29010G18KT P6SM VCSH BKN070
     FM242000 30011KT P6SM VCSH BKN070
     FM250000 31009KT P6SM BKN050
     FM250300 31007KT P6SM BKN025=

USA.gov is the U.S. government's official web portal to all federal, state and local government web resources and services.